createdAt,value
2019-04-23T00:00:54.807Z,15.00
2019-04-23T00:03:25.866Z,15.00
2019-04-23T00:05:57.932Z,15.10
2019-04-23T00:08:26.706Z,15.20
2019-04-23T00:13:39.046Z,15.10
2019-04-23T00:16:21.883Z,15.10
2019-04-23T00:21:26.687Z,14.90
2019-04-23T00:24:07.680Z,14.80
2019-04-23T00:26:30.482Z,14.90
2019-04-23T00:29:10.449Z,14.80
2019-04-23T00:31:37.695Z,14.90
2019-04-23T00:34:04.224Z,14.90
2019-04-23T00:36:53.240Z,15.00
2019-04-23T00:39:13.916Z,15.00
2019-04-23T00:44:15.197Z,14.90
2019-04-23T00:46:45.159Z,14.90
2019-04-23T00:49:19.843Z,15.00
2019-04-23T00:54:17.782Z,14.90
2019-04-23T00:57:07.331Z,14.90
2019-04-23T00:59:20.670Z,14.90
2019-04-23T01:01:56.913Z,14.90
2019-04-23T01:04:27.475Z,15.00
2019-04-23T01:07:02.545Z,15.00
2019-04-23T01:09:29.396Z,14.90
2019-04-23T01:12:07.565Z,14.90
2019-04-23T01:14:36.059Z,14.70
2019-04-23T01:17:11.383Z,14.80
2019-04-23T01:19:49.537Z,14.90
2019-04-23T01:22:04.373Z,15.00
2019-04-23T01:24:46.687Z,15.10
2019-04-23T01:27:51.656Z,15.10
2019-04-23T01:30:26.641Z,15.10
2019-04-23T01:32:52.031Z,15.10
2019-04-23T01:35:20.234Z,14.90
2019-04-23T01:37:52.417Z,14.90
2019-04-23T01:42:58.599Z,14.90
2019-04-23T01:45:48.126Z,14.80
2019-04-23T01:48:19.939Z,14.80
2019-04-23T01:50:46.386Z,14.80
2019-04-23T01:53:14.951Z,14.80
2019-04-23T01:58:36.810Z,14.80
2019-04-23T02:00:47.523Z,14.80
2019-04-23T02:03:22.629Z,14.80
2019-04-23T02:06:07.084Z,14.70
2019-04-23T02:11:11.527Z,14.90
2019-04-23T02:13:53.325Z,14.90
2019-04-23T02:16:21.434Z,15.00
2019-04-23T02:21:22.603Z,14.90
2019-04-23T02:23:57.067Z,14.90
2019-04-23T02:26:45.012Z,14.90
2019-04-23T02:29:29.881Z,14.80
2019-04-23T02:31:52.952Z,14.70
2019-04-23T02:34:23.606Z,14.80
2019-04-23T02:36:51.097Z,14.80
2019-04-23T02:39:19.879Z,14.80
2019-04-23T02:41:55.964Z,14.80
2019-04-23T02:46:59.826Z,14.80
2019-04-23T02:49:32.304Z,14.80
2019-04-23T02:56:57.304Z,14.70
2019-04-23T03:04:50.303Z,14.90
2019-04-23T03:07:32.965Z,15.00
2019-04-23T03:09:51.769Z,15.00
2019-04-23T03:15:14.469Z,15.00
2019-04-23T03:17:37.082Z,14.90
2019-04-23T03:20:18.260Z,14.90
2019-04-23T03:25:31.551Z,14.70
2019-04-23T03:27:56.486Z,14.70
2019-04-23T03:32:05.755Z,14.70
2019-04-23T03:38:43.405Z,14.70
2019-04-23T03:43:33.651Z,14.60
2019-04-23T03:46:12.414Z,14.60
2019-04-23T03:50:58.193Z,14.50
2019-04-23T03:58:44.502Z,14.60
2019-04-23T04:01:16.223Z,14.50
2019-04-23T04:04:18.294Z,14.50
2019-04-23T04:06:50.132Z,14.60
2019-04-23T04:08:50.800Z,14.60
2019-04-23T04:11:16.379Z,14.70
2019-04-23T04:13:50.493Z,14.50
2019-04-23T04:16:42.613Z,14.60
2019-04-23T04:18:55.271Z,14.60
2019-04-23T04:21:28.123Z,14.60
2019-04-23T04:24:05.453Z,14.60
2019-04-23T04:26:35.192Z,14.60
2019-04-23T04:28:58.820Z,14.50
2019-04-23T04:31:42.246Z,14.40
2019-04-23T04:34:16.488Z,14.50
2019-04-23T04:36:45.592Z,14.60
2019-04-23T04:41:40.559Z,14.50
2019-04-23T04:44:37.396Z,14.50
2019-04-23T04:54:14.286Z,14.50
2019-04-23T04:56:42.658Z,14.50
2019-04-23T05:07:02.246Z,14.50
2019-04-23T05:09:34.824Z,14.50
2019-04-23T05:12:01.107Z,14.60
2019-04-23T05:17:00.167Z,14.60
2019-04-23T05:22:07.018Z,14.70
2019-04-23T05:27:02.956Z,14.50
2019-04-23T05:29:54.642Z,14.40
2019-04-23T05:32:04.445Z,14.50
2019-04-23T05:37:06.838Z,14.70
2019-04-23T05:39:39.294Z,14.70
2019-04-23T05:42:10.671Z,14.70
2019-04-23T05:47:20.378Z,14.90
2019-04-23T05:52:17.782Z,14.90
2019-04-23T05:54:56.299Z,15.00
2019-04-23T05:57:20.023Z,15.00
2019-04-23T05:59:54.809Z,15.00
2019-04-23T06:02:26.319Z,15.00
2019-04-23T06:05:01.583Z,14.90
2019-04-23T06:15:26.765Z,14.90
2019-04-23T06:17:43.074Z,14.90
2019-04-23T06:25:31.130Z,14.80
2019-04-23T06:28:00.063Z,14.80
2019-04-23T06:31:05.002Z,14.80
2019-04-23T06:32:51.556Z,14.80
2019-04-23T06:35:22.170Z,14.80
2019-04-23T06:40:26.919Z,14.70
2019-04-23T06:43:05.319Z,14.70
2019-04-23T06:50:47.151Z,14.30
2019-04-23T06:53:04.570Z,14.40
2019-04-23T06:55:44.045Z,14.50
2019-04-23T06:58:24.031Z,14.50
2019-04-23T07:00:52.470Z,14.40
2019-04-23T07:03:25.098Z,14.50
2019-04-23T07:13:57.526Z,14.30
2019-04-23T07:16:28.249Z,14.20
2019-04-23T07:18:48.690Z,14.10
2019-04-23T07:21:22.433Z,14.20
2019-04-23T07:26:29.876Z,14.10
2019-04-23T07:28:53.244Z,14.20
2019-04-23T07:31:28.377Z,14.30
2019-04-23T07:36:36.175Z,14.50
2019-04-23T07:47:16.263Z,14.30
2019-04-23T07:52:13.263Z,14.40
2019-04-23T07:54:41.354Z,14.50
2019-04-23T07:57:15.241Z,14.50
2019-04-23T07:59:43.190Z,14.60
2019-04-23T08:02:16.004Z,14.60
2019-04-23T08:04:56.529Z,14.70
2019-04-23T08:07:17.474Z,14.60
2019-04-23T08:09:48.565Z,14.60
2019-04-23T08:14:53.622Z,14.40
2019-04-23T08:19:56.036Z,14.30
2019-04-23T08:22:28.734Z,14.40
2019-04-23T08:27:34.781Z,14.50
2019-04-23T08:30:06.213Z,14.50
2019-04-23T08:32:41.843Z,14.60
2019-04-23T08:35:26.745Z,14.50
2019-04-23T08:38:04.514Z,14.40
2019-04-23T08:40:22.833Z,14.40
2019-04-23T08:43:07.489Z,14.50
2019-04-23T08:48:07.483Z,14.50
2019-04-23T08:50:50.710Z,14.50
2019-04-23T08:53:18.294Z,14.40
2019-04-23T08:55:44.287Z,14.40
2019-04-23T08:58:13.379Z,14.50
2019-04-23T09:00:47.662Z,14.50
2019-04-23T09:03:22.003Z,14.50
2019-04-23T09:08:24.561Z,14.50
2019-04-23T09:10:56.722Z,14.50
2019-04-23T09:20:55.271Z,14.40
2019-04-23T09:23:34.919Z,14.40
2019-04-23T09:25:57.845Z,14.60
2019-04-23T09:31:14.233Z,14.50
2019-04-23T09:33:51.933Z,14.60
2019-04-23T09:36:26.256Z,14.70
2019-04-23T09:38:55.780Z,14.90
2019-04-23T09:41:27.386Z,15.10
2019-04-23T09:44:27.441Z,15.20
2019-04-23T09:49:20.911Z,15.30
2019-04-23T09:51:51.326Z,15.40
2019-04-23T09:54:23.770Z,15.30
2019-04-23T09:56:54.095Z,15.30
2019-04-23T09:59:34.166Z,15.30
2019-04-23T10:01:49.878Z,15.00
2019-04-23T10:04:16.978Z,14.90
2019-04-23T10:06:38.955Z,14.90
2019-04-23T10:09:10.124Z,14.90
2019-04-23T10:11:40.917Z,14.80
2019-04-23T10:14:12.421Z,14.90
2019-04-23T10:16:43.384Z,14.90
2019-04-23T10:19:15.034Z,14.90
2019-04-23T10:21:45.211Z,14.90
2019-04-23T10:24:15.242Z,15.00
2019-04-23T10:26:46.093Z,14.90
2019-04-23T10:29:20.577Z,14.90
2019-04-23T10:31:51.393Z,14.80
2019-04-23T10:34:23.140Z,14.80
2019-04-23T10:36:53.624Z,14.70
2019-04-23T10:39:28.302Z,14.70
2019-04-23T10:41:57.088Z,14.60
2019-04-23T10:44:32.984Z,14.70
2019-04-23T10:47:38.599Z,14.70
2019-04-23T10:50:38.713Z,14.60
2019-04-23T10:53:09.581Z,14.60
2019-04-23T10:55:41.069Z,14.50
2019-04-23T10:58:08.383Z,14.50
2019-04-23T11:00:40.575Z,14.50
2019-04-23T11:03:22.421Z,14.50
2019-04-23T11:05:53.828Z,14.40
2019-04-23T11:08:11.247Z,14.50
2019-04-23T11:10:47.076Z,14.60
2019-04-23T11:16:41.981Z,14.60
2019-04-23T11:18:38.405Z,14.40
2019-04-23T11:21:05.293Z,14.40
2019-04-23T11:23:34.517Z,14.50
2019-04-23T11:26:09.702Z,14.50
2019-04-23T11:31:31.006Z,14.50
2019-04-23T11:34:06.051Z,14.60
2019-04-23T11:38:22.065Z,14.70
2019-04-23T11:41:37.937Z,14.80
2019-04-23T11:44:52.952Z,14.70
2019-04-23T11:49:19.863Z,14.90
2019-04-23T11:51:54.402Z,14.90
2019-04-23T11:57:15.040Z,14.70
2019-04-23T11:59:31.299Z,14.70
2019-04-23T12:01:56.315Z,14.60
2019-04-23T12:07:22.944Z,14.60
2019-04-23T12:12:23.771Z,14.50
2019-04-23T12:15:07.380Z,14.60
2019-04-23T12:17:55.912Z,14.60
2019-04-23T12:23:03.894Z,14.70
2019-04-23T12:25:26.748Z,14.70
2019-04-23T12:27:42.220Z,14.60
2019-04-23T12:30:34.266Z,14.70
2019-04-23T12:33:02.933Z,14.60
2019-04-23T12:35:35.209Z,14.60
2019-04-23T12:38:17.194Z,14.70
2019-04-23T12:40:56.423Z,14.60
2019-04-23T12:43:14.511Z,14.70
2019-04-23T12:46:02.159Z,14.80
2019-04-23T12:48:33.913Z,14.70
2019-04-23T12:53:30.536Z,14.80
2019-04-23T12:56:01.963Z,14.80
2019-04-23T12:58:34.208Z,14.90
2019-04-23T13:01:13.961Z,14.90
2019-04-23T13:03:45.796Z,14.80
2019-04-23T13:06:22.214Z,14.70
2019-04-23T13:09:04.659Z,14.70
2019-04-23T13:11:34.559Z,14.60
2019-04-23T13:14:07.988Z,14.60
2019-04-23T13:16:46.472Z,14.60
2019-04-23T13:19:23.248Z,14.50
2019-04-23T13:24:25.983Z,14.30
2019-04-23T13:26:56.805Z,14.30
2019-04-23T13:29:38.083Z,14.20
2019-04-23T13:31:59.196Z,14.20
2019-04-23T13:34:41.430Z,14.00
2019-04-23T13:37:14.245Z,14.00
2019-04-23T13:39:39.631Z,14.00
2019-04-23T13:44:42.667Z,14.00
2019-04-23T13:47:19.628Z,14.20
2019-04-23T13:49:52.653Z,14.20
2019-04-23T13:52:46.655Z,14.30
2019-04-23T13:57:50.959Z,14.30
2019-04-23T13:59:48.410Z,14.20
2019-04-23T14:02:34.574Z,14.30
2019-04-23T14:07:48.541Z,14.40
2019-04-23T14:10:16.995Z,14.40
2019-04-23T14:12:53.682Z,14.30
2019-04-23T14:18:22.700Z,14.20
2019-04-23T14:20:34.921Z,14.30
2019-04-23T14:25:51.003Z,14.20
2019-04-23T14:35:56.344Z,14.50
2019-04-23T14:38:32.150Z,14.50
2019-04-23T14:41:07.760Z,14.60
2019-04-23T14:46:31.775Z,14.60
2019-04-23T14:48:49.633Z,14.60
2019-04-23T14:53:45.745Z,14.60
2019-04-23T14:58:59.890Z,14.60
2019-04-23T15:14:06.131Z,14.70
2019-04-23T15:16:39.199Z,14.60
2019-04-23T15:19:23.165Z,14.50
2019-04-23T15:24:13.872Z,14.50
2019-04-23T15:28:56.702Z,14.50
2019-04-23T15:34:20.937Z,14.70
2019-04-23T15:40:15.164Z,14.70
2019-04-23T15:41:59.304Z,14.70
2019-04-23T15:44:16.421Z,14.70
2019-04-23T15:46:57.006Z,14.70
2019-04-23T15:49:26.577Z,14.80
2019-04-23T15:52:04.046Z,14.90
2019-04-23T15:54:34.928Z,14.90
2019-04-23T15:57:02.445Z,14.90
2019-04-23T16:01:41.980Z,14.90
2019-04-23T16:04:09.821Z,14.90
2019-04-23T16:06:41.530Z,14.90
2019-04-23T16:09:36.219Z,14.90
2019-04-23T16:12:03.146Z,14.90
2019-04-23T16:14:54.598Z,14.90
2019-04-23T16:17:16.844Z,14.90
2019-04-23T16:20:06.408Z,14.90
2019-04-23T16:22:18.783Z,14.80
2019-04-23T16:25:00.977Z,14.80
2019-04-23T16:27:19.948Z,14.80
2019-04-23T16:30:12.836Z,14.80
2019-04-23T16:32:52.319Z,14.70
2019-04-23T16:35:28.934Z,14.80
2019-04-23T16:38:01.811Z,14.70
2019-04-23T16:40:31.877Z,14.70
2019-04-23T16:42:59.687Z,14.70
2019-04-23T16:45:27.056Z,14.70
2019-04-23T16:47:59.569Z,14.70
2019-04-23T16:50:32.727Z,14.70
2019-04-23T16:53:09.222Z,14.50
2019-04-23T16:58:16.542Z,14.60
2019-04-23T17:00:43.669Z,14.50
2019-04-23T17:08:37.701Z,14.60
2019-04-23T17:13:18.344Z,14.60
2019-04-23T17:18:26.270Z,14.60
2019-04-23T17:20:50.596Z,14.70
2019-04-23T17:23:31.704Z,14.70
2019-04-23T17:31:18.353Z,14.80
2019-04-23T17:38:55.316Z,14.90
2019-04-23T17:41:38.790Z,14.90
2019-04-23T17:44:25.186Z,14.90
2019-04-23T17:46:34.183Z,15.00
2019-04-23T17:51:34.402Z,14.80
2019-04-23T17:56:56.021Z,14.80
2019-04-23T18:02:08.190Z,14.80
2019-04-23T18:06:56.294Z,14.90
2019-04-23T18:09:31.645Z,14.90
2019-04-23T18:14:18.143Z,14.90
2019-04-23T18:17:07.167Z,14.90
2019-04-23T18:19:24.738Z,14.90
2019-04-23T18:22:18.278Z,14.80
2019-04-23T18:25:05.782Z,14.60
2019-04-23T18:27:30.972Z,14.60
2019-04-23T18:30:07.937Z,14.70
2019-04-23T18:32:44.657Z,14.80
2019-04-23T18:35:19.542Z,14.80
2019-04-23T18:37:49.297Z,14.80
2019-04-23T18:40:21.489Z,14.80
2019-04-23T18:43:02.588Z,14.80
2019-04-23T18:45:31.949Z,14.90
2019-04-23T18:47:54.843Z,14.90
2019-04-23T18:50:43.227Z,14.90
2019-04-23T18:53:02.834Z,14.90
2019-04-23T18:55:45.109Z,14.90
2019-04-23T18:58:04.129Z,14.90
2019-04-23T19:03:21.857Z,15.00
2019-04-23T19:06:10.055Z,15.00
2019-04-23T19:08:55.307Z,15.10
2019-04-23T19:11:13.666Z,14.90
2019-04-23T19:13:42.302Z,15.00
2019-04-23T19:16:07.405Z,15.00
2019-04-23T19:21:31.518Z,15.00
2019-04-23T19:23:50.847Z,15.00
2019-04-23T19:26:30.921Z,15.00
2019-04-23T19:28:55.532Z,14.90
2019-04-23T19:31:53.254Z,14.90
2019-04-23T19:34:22.480Z,15.00
2019-04-23T19:36:54.346Z,15.00
2019-04-23T19:39:24.579Z,15.00
2019-04-23T19:41:57.709Z,15.00
2019-04-23T19:49:31.638Z,15.00
2019-04-23T19:51:53.231Z,15.10
2019-04-23T19:57:02.015Z,15.10
2019-04-23T19:59:43.241Z,15.10
2019-04-23T20:04:37.308Z,15.10
2019-04-23T20:12:09.452Z,15.20
2019-04-23T20:17:34.090Z,15.20
2019-04-23T20:22:29.106Z,15.10
2019-04-23T20:25:10.006Z,15.10
2019-04-23T20:35:16.434Z,14.80
2019-04-23T20:38:18.992Z,14.90
2019-04-23T20:40:30.590Z,14.90
2019-04-23T20:43:01.767Z,14.90
2019-04-23T20:45:27.650Z,14.90
2019-04-23T20:48:02.188Z,14.90
2019-04-23T20:50:34.485Z,15.00
2019-04-23T20:52:59.610Z,15.00
2019-04-23T20:58:31.575Z,15.00
2019-04-23T21:01:07.185Z,15.00
2019-04-23T21:06:07.523Z,14.80
2019-04-23T21:11:05.259Z,14.90
2019-04-23T21:14:02.010Z,14.90
2019-04-23T21:16:15.265Z,14.80
2019-04-23T21:19:02.511Z,14.90
2019-04-23T21:21:17.942Z,14.80
2019-04-23T21:23:50.389Z,14.80
2019-04-23T21:26:22.847Z,14.80
2019-04-23T21:31:27.481Z,14.90
2019-04-23T21:34:17.380Z,14.90
2019-04-23T21:39:20.224Z,14.90
2019-04-23T21:49:48.687Z,15.00
2019-04-23T21:54:21.312Z,14.90
2019-04-23T21:56:54.187Z,15.00
2019-04-23T21:59:27.438Z,15.00
2019-04-23T22:02:01.383Z,14.90
2019-04-23T22:07:29.270Z,15.00
2019-04-23T22:12:10.269Z,14.90
2019-04-23T22:14:47.505Z,14.90
2019-04-23T22:17:19.788Z,15.00
2019-04-23T22:19:58.575Z,15.00
2019-04-23T22:22:20.420Z,15.00
2019-04-23T22:27:20.484Z,15.10
2019-04-23T22:29:49.153Z,15.10
2019-04-23T22:32:34.328Z,15.20
2019-04-23T22:35:00.385Z,15.20
2019-04-23T22:37:48.108Z,15.20
2019-04-23T22:39:58.881Z,15.20
2019-04-23T22:42:54.210Z,15.10
2019-04-23T22:45:17.329Z,15.10
2019-04-23T22:47:39.281Z,15.10
2019-04-23T22:50:05.889Z,15.10
2019-04-23T22:52:40.701Z,15.20
2019-04-23T22:55:12.698Z,15.10
2019-04-23T22:57:58.738Z,15.10
2019-04-23T23:05:56.218Z,15.20
2019-04-23T23:08:16.575Z,15.20
2019-04-23T23:10:55.130Z,15.20
2019-04-23T23:13:18.308Z,15.30
2019-04-23T23:15:54.508Z,15.30
2019-04-23T23:23:21.337Z,15.20
2019-04-23T23:26:00.735Z,15.20
2019-04-23T23:28:34.973Z,15.20
2019-04-23T23:31:08.602Z,15.30
2019-04-23T23:33:30.581Z,15.30
2019-04-23T23:36:10.431Z,15.30
2019-04-23T23:38:41.764Z,15.20
2019-04-23T23:43:43.909Z,15.10
2019-04-23T23:48:41.831Z,15.10
2019-04-23T23:51:17.405Z,15.10
2019-04-23T23:56:14.246Z,15.10
2019-04-23T23:58:58.280Z,15.20
